Time;durP1;ratioP1;P1;durP2;ratioP2;P2;SDS_P1;SDS_P2;PMS_P1;PMS_P2;Temp;Humidity;BMP_temperature;BMP_pressure;BME280_temperature;BME280_humidity;BME280_pressure;Samples;Min_cycle;Max_cycle;Signal;HPM_P1;HPM_P2
2022/08/11 00:00:47;;;;;;;4.75;3.60;;;;;;;21.48;44.61;96017.53;4896222;29;20774;-83
2022/08/11 00:03:15;;;;;;;2.75;2.55;;;;;;;21.40;45.02;96017.88;4880146;29;20250;-82
2022/08/11 00:05:46;;;;;;;4.05;2.38;;;;;;;21.33;44.94;96015.41;4896019;29;20707;-82
2022/08/11 00:08:22;;;;;;;3.78;3.47;;;;;;;21.23;45.20;96007.34;4888762;29;20244;-82
2022/08/11 00:10:52;;;;;;;12.50;11.20;;;;;;;21.19;45.39;96006.97;4878766;29;20576;-82
2022/08/11 00:13:20;;;;;;;8.77;7.97;;;;;;;21.23;45.25;96016.00;4879026;29;20318;-83
2022/08/11 00:15:48;;;;;;;4.90;4.50;;;;;;;21.20;45.68;96026.13;4883634;29;20199;-83
2022/08/11 00:18:16;;;;;;;8.52;2.80;;;;;;;21.17;45.58;96021.31;4898671;29;20210;-83
2022/08/11 00:20:44;;;;;;;4.13;2.50;;;;;;;21.18;45.73;96021.09;4894305;29;20244;-82
2022/08/11 00:23:13;;;;;;;6.43;5.82;;;;;;;21.12;45.67;96024.66;4878580;29;20231;-82
2022/08/11 00:25:43;;;;;;;7.78;5.90;;;;;;;21.12;45.79;96023.88;4882074;29;20211;-83
2022/08/11 00:28:27;;;;;;;2.80;2.60;;;;;;;21.10;45.85;96023.31;4897691;29;20211;-82
2022/08/11 00:30:58;;;;;;;2.97;2.60;;;;;;;21.02;45.74;96024.44;4878769;29;20644;-83
2022/08/11 00:33:31;;;;;;;2.67;2.47;;;;;;;21.02;46.01;96027.06;4879562;29;20256;-83
2022/08/11 00:36:00;;;;;;;2.60;2.40;;;;;;;21.02;45.51;96020.00;4884100;29;20294;-83
2022/08/11 00:38:32;;;;;;;2.97;2.65;;;;;;;20.92;46.26;96022.44;4897684;29;20211;-83
2022/08/11 00:41:07;;;;;;;2.90;2.20;;;;;;;20.89;46.07;96019.47;4891695;29;20287;-83
2022/08/11 00:43:50;;;;;;;2.85;2.22;;;;;;;20.71;46.39;96017.78;4878983;29;20239;-82
2022/08/11 00:46:28;;;;;;;3.15;2.53;;;;;;;20.69;46.70;96023.25;4886145;29;20262;-83
2022/08/11 00:49:11;;;;;;;2.60;2.40;;;;;;;20.62;47.18;96027.00;4897732;29;20270;-82
2022/08/11 00:51:53;;;;;;;2.83;2.63;;;;;;;20.63;46.64;96024.16;4886428;29;20254;-82
2022/08/11 00:54:36;;;;;;;2.67;2.47;;;;;;;20.63;47.06;96020.75;4878931;29;20222;-83
2022/08/11 00:57:22;;;;;;;4.18;2.47;;;;;;;20.71;46.80;96024.84;4892927;29;20250;-83
2022/08/11 01:00:10;;;;;;;4.13;2.60;;;;;;;20.75;46.83;96016.31;4879791;29;20283;-83
2022/08/11 01:02:51;;;;;;;4.43;2.50;;;;;;;20.78;46.68;96018.47;4879362;29;20295;-83
2022/08/11 01:05:46;;;;;;;2.67;2.45;;;;;;;20.73;46.70;96014.94;4880567;29;20211;-82
2022/08/11 01:08:39;;;;;;;3.72;2.75;;;;;;;20.59;47.27;96023.00;4877773;29;20267;-83
2022/08/11 01:11:33;;;;;;;2.65;2.45;;;;;;;20.46;47.36;96012.78;4883413;29;20246;-82
2022/08/11 01:14:29;;;;;;;2.50;2.30;;;;;;;20.40;47.94;96012.91;4881965;29;20219;-83
2022/08/11 01:17:13;;;;;;;2.72;2.53;;;;;;;20.40;47.80;96005.06;4883341;29;20578;-83
2022/08/11 01:20:05;;;;;;;3.60;2.58;;;;;;;20.40;47.69;96010.31;4883321;29;20239;-83
2022/08/11 01:22:59;;;;;;;4.65;2.40;;;;;;;20.39;48.07;96006.09;4884634;29;20239;-82
2022/08/11 01:26:05;;;;;;;2.60;2.40;;;;;;;20.33;48.28;96003.31;4902265;29;20211;-83
2022/08/11 01:29:13;;;;;;;2.88;2.50;;;;;;;20.38;48.44;96007.91;4874882;29;20218;-83
2022/08/11 01:32:12;;;;;;;2.83;2.60;;;;;;;20.27;48.66;96004.22;4885366;29;20242;-82
2022/08/11 01:35:29;;;;;;;3.60;2.85;;;;;;;20.09;49.09;96012.16;4884173;29;20660;-82
2022/08/11 01:38:27;;;;;;;4.43;2.83;;;;;;;20.15;49.20;96011.28;4883583;29;20207;-82
2022/08/11 01:41:23;;;;;;;2.92;2.60;;;;;;;20.24;48.67;96009.09;4881792;29;20276;-82
2022/08/11 01:44:38;;;;;;;2.72;2.50;;;;;;;20.24;48.73;96015.13;4886721;29;20211;-82
2022/08/11 01:50:21;;;;;;;4.68;3.03;;;;;;;20.14;49.37;96008.88;4881871;29;20775;-83
2022/08/11 01:53:15;;;;;;;4.07;2.90;;;;;;;20.08;49.13;96005.34;4881909;29;20239;-83
2022/08/11 01:55:49;;;;;;;3.28;2.75;;;;;;;20.00;49.50;95997.84;4882276;29;20232;-82
2022/08/11 01:58:26;;;;;;;3.53;2.45;;;;;;;20.07;49.10;96005.56;4883980;29;20293;-82
2022/08/11 02:01:07;;;;;;;3.50;2.60;;;;;;;20.10;49.33;96005.91;4899939;29;20313;-82
2022/08/11 02:03:40;;;;;;;2.80;2.60;;;;;;;20.15;49.12;96000.81;4887900;29;20262;-82
2022/08/11 02:09:26;;;;;;;3.05;2.75;;;;;;;20.13;49.29;96000.22;4860930;29;20212;-83
2022/08/11 02:11:57;;;;;;;3.53;2.80;;;;;;;20.00;49.32;96000.47;4848638;29;20373;-82
2022/08/11 02:14:29;;;;;;;2.97;2.75;;;;;;;20.10;49.03;96003.31;4863121;29;20207;-82
2022/08/11 02:17:07;;;;;;;3.08;2.75;;;;;;;20.10;49.26;95998.06;4883261;29;20578;-82
2022/08/11 02:25:34;;;;;;;3.58;2.75;;;;;;;19.91;49.87;95994.75;4884559;29;20282;-82
2022/08/11 02:28:07;;;;;;;3.38;3.08;;;;;;;19.89;49.68;95990.75;4900304;29;20378;-82
2022/08/11 02:30:39;;;;;;;4.50;2.83;;;;;;;19.83;50.20;95994.25;4884111;29;20227;-82
2022/08/11 02:33:24;;;;;;;3.47;2.85;;;;;;;19.84;50.19;95995.84;4881355;29;20227;-82
2022/08/11 02:36:09;;;;;;;3.25;2.95;;;;;;;19.86;50.19;95991.19;4881787;29;20580;-82
2022/08/11 02:38:46;;;;;;;3.03;2.75;;;;;;;19.87;49.92;95987.56;4882042;29;20218;-82
2022/08/11 02:44:30;;;;;;;4.00;2.90;;;;;;;19.74;50.46;95987.78;4841506;29;20273;-82
2022/08/11 02:47:07;;;;;;;3.22;2.60;;;;;;;19.73;50.59;95991.41;4854014;29;20216;-82
2022/08/11 02:49:55;;;;;;;3.05;2.70;;;;;;;19.64;50.91;95994.31;4876567;29;20207;-82
2022/08/11 02:52:40;;;;;;;4.38;2.95;;;;;;;19.77;50.64;95990.75;4880691;29;20856;-82
2022/08/11 02:55:27;;;;;;;5.25;2.67;;;;;;;19.78;50.62;95994.94;4887798;29;20206;-82
2022/08/11 02:58:02;;;;;;;4.13;2.85;;;;;;;19.89;50.35;95991.56;4883866;29;20203;-82
2022/08/11 03:00:36;;;;;;;3.33;3.03;;;;;;;19.91;50.51;95991.34;4880952;29;20254;-82
2022/08/11 03:03:18;;;;;;;3.22;2.78;;;;;;;19.95;50.31;95995.09;4882664;29;20238;-83
2022/08/11 03:05:55;;;;;;;3.20;2.90;;;;;;;19.93;50.40;95997.13;4899352;29;20207;-82
2022/08/11 03:08:31;;;;;;;4.03;3.30;;;;;;;19.82;50.77;95998.69;4899349;29;20211;-82
2022/08/11 03:16:56;;;;;;;3.20;2.90;;;;;;;19.64;51.44;95999.56;4899117;29;20631;-82
2022/08/11 03:19:30;;;;;;;3.33;2.80;;;;;;;19.71;51.28;95998.66;4880895;29;20211;-82
2022/08/11 03:22:03;;;;;;;4.95;2.97;;;;;;;19.71;51.38;96001.28;4891713;29;20241;-82
2022/08/11 03:24:43;;;;;;;5.35;3.10;;;;;;;19.66;51.52;95992.28;4899262;29;20711;-82
2022/08/11 03:27:22;;;;;;;3.00;2.65;;;;;;;19.70;51.62;95992.66;4898023;29;20571;-82
2022/08/11 03:30:03;;;;;;;3.40;2.90;;;;;;;19.62;51.62;95990.38;4887270;29;20200;-82
2022/08/11 03:32:36;;;;;;;3.00;2.80;;;;;;;19.52;51.64;95992.72;4880218;29;20239;-82
2022/08/11 03:35:04;;;;;;;4.20;3.10;;;;;;;19.61;51.63;95992.19;4894701;29;20203;-82
2022/08/11 03:37:50;;;;;;;5.75;3.17;;;;;;;19.58;51.85;95992.63;4898674;29;20207;-83
2022/08/11 03:43:37;;;;;;;2.97;2.78;;;;;;;19.59;51.83;95996.03;4880371;29;20242;-82
2022/08/11 03:46:08;;;;;;;4.20;3.13;;;;;;;19.62;51.38;95993.78;4896388;29;20584;-82
2022/08/11 03:48:46;;;;;;;4.13;3.10;;;;;;;19.56;51.99;95989.44;4893847;29;20198;-82
2022/08/11 03:51:22;;;;;;;4.65;3.30;;;;;;;19.57;51.73;95993.66;4887430;29;20243;-82
2022/08/11 03:54:08;;;;;;;3.58;3.15;;;;;;;19.60;51.90;95992.41;4886914;29;20202;-82
2022/08/11 03:57:14;;;;;;;3.90;2.88;;;;;;;19.49;52.26;95993.13;4898507;29;20293;-82
2022/08/11 04:00:10;;;;;;;4.15;3.17;;;;;;;19.38;52.72;95988.66;4883511;29;20267;-82
2022/08/11 04:03:13;;;;;;;3.80;3.50;;;;;;;19.30;52.83;95987.94;4879213;29;20231;-82
2022/08/11 04:06:12;;;;;;;5.40;3.45;;;;;;;19.31;52.58;95986.91;4888376;29;20214;-82
2022/08/11 04:09:17;;;;;;;3.47;2.92;;;;;;;19.40;52.56;95990.03;4892043;29;20233;-82
2022/08/11 04:12:28;;;;;;;5.10;3.38;;;;;;;19.37;52.54;95984.44;4878243;29;20350;-82
2022/08/11 04:19:00;;;;;;;7.13;3.03;;;;;;;19.28;52.80;95978.72;4869605;29;20339;-82
2022/08/11 04:22:14;;;;;;;3.13;2.85;;;;;;;19.38;52.88;95980.81;4857629;29;20319;-82
2022/08/11 04:25:11;;;;;;;4.70;3.17;;;;;;;19.36;52.64;95985.47;4896566;29;20246;-82
2022/08/11 04:28:23;;;;;;;4.35;3.30;;;;;;;19.26;53.07;95983.38;4898684;29;20217;-82
2022/08/11 04:31:03;;;;;;;3.55;3.25;;;;;;;19.25;52.84;95987.00;4853239;29;20238;-82
2022/08/11 04:33:42;;;;;;;3.97;3.30;;;;;;;19.30;53.06;95987.13;4898097;29;20229;-82
2022/08/11 04:39:32;;;;;;;3.30;3.00;;;;;;;19.33;52.79;95982.28;4897547;29;20206;-82
2022/08/11 04:45:32;;;;;;;4.20;3.45;;;;;;;19.58;52.47;95984.78;4897498;29;20213;-82
2022/08/11 05:03:26;;;;;;;5.35;3.63;;;;;;;20.27;50.88;95999.00;4878606;29;20783;-82
2022/08/11 05:06:35;;;;;;;4.15;3.75;;;;;;;20.20;50.75;96006.16;4879112;29;20207;-82
2022/08/11 05:09:22;;;;;;;3.65;3.20;;;;;;;20.21;51.23;96006.94;4868097;29;20210;-82
2022/08/11 05:12:09;;;;;;;5.40;3.53;;;;;;;20.20;51.81;96002.75;4878401;29;20227;-82
2022/08/11 05:37:11;;;;;;;4.28;3.30;;;;;;;20.71;50.65;96009.94;4897530;29;20287;-82
2022/08/11 05:56:33;;;;;;;3.50;3.00;;;;;;;20.69;50.99;96006.75;4897232;29;20247;-82
2022/08/11 05:59:00;;;;;;;3.42;3.13;;;;;;;20.73;50.44;96001.84;4896801;29;20211;-82
2022/08/11 06:01:29;;;;;;;4.82;3.30;;;;;;;20.89;49.88;96003.75;4899027;29;20238;-82
2022/08/11 06:04:16;;;;;;;3.80;3.38;;;;;;;20.95;50.00;96001.03;4900065;29;20803;-82
2022/08/11 06:06:50;;;;;;;3.88;3.13;;;;;;;20.95;49.60;95997.63;4901199;29;20219;-82
2022/08/11 06:09:23;;;;;;;4.63;3.22;;;;;;;20.79;49.72;96004.34;4900830;29;20289;-82
2022/08/11 06:11:52;;;;;;;6.43;3.63;;;;;;;20.66;49.84;95994.91;4899037;29;20242;-82
2022/08/11 06:14:20;;;;;;;4.53;3.38;;;;;;;20.63;50.64;96002.41;4899543;29;20209;-82
2022/08/11 06:16:48;;;;;;;3.75;3.45;;;;;;;20.75;49.94;95998.00;4899566;29;20211;-82
2022/08/11 06:19:15;;;;;;;5.95;3.22;;;;;;;20.64;50.33;96002.19;4899353;29;20271;-82
2022/08/11 06:21:46;;;;;;;3.53;3.33;;;;;;;20.69;50.76;95998.91;4899110;29;20238;-82
2022/08/11 06:24:14;;;;;;;4.68;3.40;;;;;;;20.79;50.10;96003.53;4900381;29;20293;-83
2022/08/11 06:26:47;;;;;;;5.18;3.60;;;;;;;20.98;50.41;96004.97;4900588;29;20199;-82
2022/08/11 06:29:17;;;;;;;3.88;3.35;;;;;;;20.84;50.60;96012.28;4900309;29;20214;-82
2022/08/11 06:31:50;;;;;;;3.85;3.55;;;;;;;20.77;50.05;96003.00;4898757;29;20241;-82
2022/08/11 06:34:31;;;;;;;3.47;3.17;;;;;;;20.72;50.80;96006.28;4900917;29;20211;-82
2022/08/11 06:37:13;;;;;;;6.35;3.42;;;;;;;20.85;50.60;96002.63;4900667;29;20274;-82
2022/08/11 06:39:47;;;;;;;6.53;3.42;;;;;;;20.96;50.16;96007.06;4900849;29;20230;-82
2022/08/11 06:42:26;;;;;;;3.53;3.33;;;;;;;21.08;50.26;96015.69;4899563;29;20239;-82
2022/08/11 06:45:06;;;;;;;3.53;3.17;;;;;;;21.10;49.84;96011.00;4900923;29;20635;-82
2022/08/11 06:47:33;;;;;;;3.75;3.38;;;;;;;21.08;49.84;96012.25;4901056;29;20203;-82
2022/08/11 06:52:47;;;;;;;5.13;3.67;;;;;;;20.93;50.35;96016.16;4899824;29;20241;-82
2022/08/11 07:00:26;;;;;;;4.05;3.38;;;;;;;21.18;49.68;96022.91;4901143;29;20207;-82
2022/08/11 07:01:05;;;;;;;4.63;3.72;;;;;;;21.26;49.85;96022.59;4898775;29;20230;-82
2022/08/11 07:03:37;;;;;;;4.38;3.10;;;;;;;21.39;49.60;96027.56;4900487;29;20210;-82
2022/08/11 07:06:15;;;;;;;6.07;3.55;;;;;;;21.38;48.98;96024.16;4899178;29;20739;-82
2022/08/11 07:17:48;;;;;;;5.28;3.33;;;;;;;21.57;48.80;96013.47;4899827;29;20633;-82
2022/08/11 07:31:35;;;;;;;5.57;3.38;;;;;;;21.79;48.67;96008.34;4857077;29;20789;-82
2022/08/11 07:34:20;;;;;;;3.72;3.30;;;;;;;21.84;48.15;96001.38;4878965;29;20203;-82
2022/08/11 07:36:51;;;;;;;3.90;3.50;;;;;;;22.09;48.32;96010.75;4877999;29;20214;-82
2022/08/11 07:39:20;;;;;;;3.20;2.90;;;;;;;22.28;47.42;95994.53;4878178;29;20211;-82
2022/08/11 07:41:48;;;;;;;4.10;3.40;;;;;;;22.41;47.24;96003.88;4876743;29;20234;-82
2022/08/11 07:44:16;;;;;;;4.07;3.22;;;;;;;22.49;46.80;96000.06;4877855;29;20208;-82
2022/08/11 07:52:31;;;;;;;3.15;2.92;;;;;;;22.92;45.55;95997.50;4876425;29;20855;-82
2022/08/11 07:54:59;;;;;;;3.15;2.90;;;;;;;23.00;45.27;95994.47;4877715;29;20611;-82
2022/08/11 08:19:29;;;;;;;7.15;3.33;;;;;;;23.83;44.68;95987.22;4896306;29;20247;-82
2022/08/11 08:21:58;;;;;;;3.90;2.95;;;;;;;23.98;44.45;95994.44;4895130;29;20305;-82
2022/08/11 08:24:25;;;;;;;3.55;3.28;;;;;;;24.05;43.53;95992.41;4895835;29;20755;-82
2022/08/11 08:27:01;;;;;;;5.78;3.70;;;;;;;23.95;43.71;95990.47;4896662;29;20615;-82
2022/08/11 08:32:17;;;;;;;6.10;3.40;;;;;;;24.11;43.03;95991.38;4895249;29;20765;-82
2022/08/11 08:34:45;;;;;;;6.10;3.05;;;;;;;24.07;43.32;95996.34;4895711;29;20270;-82
2022/08/11 08:37:14;;;;;;;4.00;3.17;;;;;;;24.14;43.29;95998.00;4897337;29;20206;-83
2022/08/11 08:39:41;;;;;;;4.05;3.10;;;;;;;24.26;43.53;95994.16;4897301;29;20210;-82
2022/08/11 08:42:11;;;;;;;3.60;3.30;;;;;;;24.39;43.24;95999.00;4895305;29;20238;-82
2022/08/11 08:44:41;;;;;;;4.20;3.70;;;;;;;24.38;42.62;95994.78;4896771;29;20209;-83
2022/08/11 08:47:12;;;;;;;3.80;3.25;;;;;;;24.72;43.04;95991.81;4895866;29;20597;-82
2022/08/11 08:49:48;;;;;;;3.70;3.40;;;;;;;24.78;42.26;95996.88;4897003;29;20214;-82
2022/08/11 08:52:20;;;;;;;3.60;3.28;;;;;;;24.95;42.20;96007.25;4895945;29;20706;-83
2022/08/11 08:54:49;;;;;;;4.50;3.42;;;;;;;24.94;42.31;96000.41;4896659;29;20207;-82
2022/08/11 08:57:19;;;;;;;3.60;3.30;;;;;;;25.04;42.55;95999.63;4896784;29;20933;-83
2022/08/11 08:59:49;;;;;;;3.30;3.00;;;;;;;25.11;41.87;95987.03;4896539;29;20255;-82
2022/08/11 09:02:17;;;;;;;7.03;3.55;;;;;;;25.01;41.22;95995.69;4895535;29;20238;-83
2022/08/11 09:04:45;;;;;;;3.33;3.03;;;;;;;25.35;42.10;95990.81;4896377;29;20263;-83
2022/08/11 09:07:14;;;;;;;4.75;3.20;;;;;;;25.53;40.88;95997.44;4896769;29;20671;-82
2022/08/11 09:09:43;;;;;;;4.90;3.05;;;;;;;25.61;41.04;95990.84;4896956;29;20207;-83
2022/08/11 09:12:11;;;;;;;4.00;3.10;;;;;;;25.68;40.43;95994.84;4894659;29;20235;-82
2022/08/11 09:15:03;;;;;;;3.63;3.10;;;;;;;25.65;40.48;95990.09;4897126;29;20211;-83
2022/08/11 09:17:33;;;;;;;5.70;2.95;;;;;;;26.05;40.20;95999.09;4896352;29;20298;-82
2022/08/11 09:20:03;;;;;;;3.47;3.15;;;;;;;26.25;39.58;95996.47;4895848;29;20215;-83
2022/08/11 09:28:06;;;;;;;9.18;8.18;;;;;;;26.32;39.49;95998.88;4897005;29;20206;-83
2022/08/11 09:30:33;;;;;;;6.13;3.58;;;;;;;26.51;39.55;95991.97;4896300;29;20226;-83
2022/08/11 09:33:04;;;;;;;4.00;3.08;;;;;;;26.57;38.70;95990.91;4897218;29;20235;-83
2022/08/11 09:35:33;;;;;;;3.63;3.30;;;;;;;26.24;39.09;96002.00;4900757;29;20207;-83
2022/08/11 09:40:48;;;;;;;5.47;3.50;;;;;;;26.70;39.45;95985.06;4899207;29;20302;-82
2022/08/11 09:46:03;;;;;;;5.95;3.38;;;;;;;26.94;38.25;96001.13;4899938;29;20315;-83
2022/08/11 09:48:34;;;;;;;3.25;3.05;;;;;;;27.01;38.25;96000.84;4899939;29;20207;-82
2022/08/11 09:51:02;;;;;;;3.95;3.30;;;;;;;26.98;37.42;95996.88;4898110;29;20255;-83
2022/08/11 09:53:33;;;;;;;3.35;3.05;;;;;;;27.05;37.16;95994.75;4899531;29;20255;-83
2022/08/11 09:58:12;;;;;;;3.67;2.90;;;;;;;27.06;37.46;95996.34;4899450;29;20694;-82
2022/08/11 09:58:49;;;;;;;3.47;2.83;;;;;;;26.99;37.20;95995.03;4898121;29;20211;-82
2022/08/11 10:01:26;;;;;;;3.28;2.97;;;;;;;27.27;37.38;95990.97;4896987;29;20241;-83
2022/08/11 10:03:57;;;;;;;3.20;2.90;;;;;;;27.49;36.78;95986.88;4897914;29;20293;-83
2022/08/11 10:09:09;;;;;;;4.38;3.13;;;;;;;27.91;35.99;95982.13;4897854;29;20214;-83
2022/08/11 10:11:40;;;;;;;6.32;2.50;;;;;;;28.10;35.47;95975.88;4897050;29;20286;-83
2022/08/11 10:16:53;;;;;;;2.53;2.33;;;;;;;28.15;35.18;95977.69;4898010;29;20299;-82
2022/08/11 10:19:21;;;;;;;4.78;2.50;;;;;;;28.22;35.15;95974.78;4897992;29;20215;-82
2022/08/11 10:26:49;;;;;;;2.67;2.33;;;;;;;28.22;33.97;95972.91;4896733;29;20231;-82
2022/08/11 10:27:24;;;;;;;4.03;2.75;;;;;;;27.97;34.02;95965.13;4897849;29;20305;-82
2022/08/11 10:35:25;;;;;;;2.92;2.40;;;;;;;28.18;33.32;95945.38;4897602;29;20218;-82
2022/08/11 10:37:55;;;;;;;3.22;2.60;;;;;;;28.05;33.52;95954.75;4897607;29;20252;-82
2022/08/11 10:40:23;;;;;;;4.03;2.70;;;;;;;27.99;33.21;95947.91;4896821;29;20226;-83
2022/08/11 10:43:02;;;;;;;2.80;2.60;;;;;;;28.00;34.28;95967.25;4897199;29;20226;-83
2022/08/11 10:48:17;;;;;;;6.85;4.40;;;;;;;27.94;33.18;95947.94;4897255;29;20311;-83
2022/08/11 10:59:01;;;;;;;2.60;2.40;;;;;;;28.01;33.06;95945.00;4898972;29;20246;-83
2022/08/11 11:01:31;;;;;;;3.10;2.80;;;;;;;28.17;33.76;95946.44;4897730;29;20237;-83
2022/08/11 11:04:01;;;;;;;3.15;2.85;;;;;;;28.22;33.45;95940.34;4898464;29;20228;-83
2022/08/11 11:06:35;;;;;;;4.10;2.70;;;;;;;28.28;33.37;95932.06;4899877;29;20207;-83
2022/08/11 11:09:06;;;;;;;4.28;2.40;;;;;;;28.10;34.28;95938.81;4898727;29;20231;-83
2022/08/11 11:20:06;;;;;;;2.72;2.50;;;;;;;27.89;34.21;95934.78;4898746;29;20234;-83
2022/08/11 11:22:39;;;;;;;3.97;2.88;;;;;;;28.06;34.30;95940.44;4899366;29;20230;-83
2022/08/11 11:25:20;;;;;;;4.43;2.42;;;;;;;28.23;33.95;95926.81;4898442;29;20210;-83
2022/08/11 11:28:00;;;;;;;3.78;2.47;;;;;;;28.38;33.18;95928.53;4898239;29;20286;-83
2022/08/11 11:30:36;;;;;;;2.97;2.60;;;;;;;28.42;33.01;95926.91;4897260;29;20625;-83
2022/08/11 11:33:11;;;;;;;3.28;2.25;;;;;;;28.43;33.37;95928.47;4897590;29;20325;-83
2022/08/11 11:35:46;;;;;;;3.80;2.60;;;;;;;28.26;33.93;95922.81;4898164;29;20210;-83
2022/08/11 11:38:12;;;;;;;3.15;2.28;;;;;;;28.38;32.91;95918.72;4898016;29;20293;-83
2022/08/11 11:40:41;;;;;;;15.05;13.65;;;;;;;28.49;33.58;95920.16;4897576;29;20226;-83
2022/08/11 11:43:08;;;;;;;6.55;4.43;;;;;;;28.53;33.40;95925.69;4896818;29;20234;-83
2022/08/11 11:45:36;;;;;;;3.88;2.70;;;;;;;28.39;32.41;95917.66;4897934;29;20582;-83
2022/08/11 11:48:03;;;;;;;2.58;2.38;;;;;;;28.52;33.56;95924.91;4897883;29;20210;-83
2022/08/11 11:50:34;;;;;;;2.15;2.05;;;;;;;28.39;32.33;95916.84;4896644;29;20230;-83
2022/08/11 11:53:03;;;;;;;2.63;2.30;;;;;;;28.54;32.49;95920.13;4897265;29;20266;-83
2022/08/11 11:55:31;;;;;;;3.72;2.20;;;;;;;28.45;32.54;95918.38;4897406;29;20214;-83
2022/08/11 12:03:30;;;;;;;3.05;2.35;;;;;;;28.59;32.76;95929.88;4897620;29;20640;-83
2022/08/11 12:05:58;;;;;;;5.97;2.38;;;;;;;28.69;33.12;95926.31;4898373;29;20263;-83
2022/08/11 12:08:26;;;;;;;2.80;2.10;;;;;;;28.58;33.18;95915.06;4899990;29;20207;-83
2022/08/11 12:13:42;;;;;;;5.20;2.35;;;;;;;28.58;32.37;95909.75;4897399;29;20262;-83
2022/08/11 12:16:13;;;;;;;4.43;2.40;;;;;;;28.80;32.88;95902.09;4897947;29;20210;-83
2022/08/11 12:18:41;;;;;;;3.72;2.22;;;;;;;29.00;32.84;95910.88;4897682;29;20571;-83
2022/08/11 12:21:09;;;;;;;4.45;2.50;;;;;;;28.96;31.94;95907.22;4898631;29;20227;-83
2022/08/11 12:29:10;;;;;;;32.58;29.60;;;;;;;29.09;31.67;95899.34;4899127;29;20205;-83
2022/08/11 12:31:39;;;;;;;7.60;3.92;;;;;;;29.06;31.97;95902.56;4898969;29;20234;-83
2022/08/11 12:34:08;;;;;;;4.38;2.42;;;;;;;29.07;31.66;95900.69;4899129;29;20230;-83
2022/08/11 12:36:37;;;;;;;4.63;2.45;;;;;;;28.93;31.67;95887.34;4898336;29;20266;-83
2022/08/11 12:39:07;;;;;;;2.67;2.22;;;;;;;29.14;32.33;95885.22;4900373;29;20691;-83
2022/08/11 12:47:09;;;;;;;2.63;2.35;;;;;;;29.21;31.00;95873.19;4898053;29;20206;-83
2022/08/11 12:52:29;;;;;;;3.65;2.28;;;;;;;29.25;31.07;95875.28;4898659;29;20745;-83
2022/08/11 12:55:00;;;;;;;3.25;2.25;;;;;;;29.40;31.55;95873.19;4898448;29;20239;-83
2022/08/11 13:05:54;;;;;;;3.03;2.30;;;;;;;29.41;30.56;95864.16;4897719;29;20258;-83
2022/08/11 13:08:23;;;;;;;4.05;2.50;;;;;;;29.44;30.42;95855.59;4898425;29;20207;-83
2022/08/11 13:13:37;;;;;;;2.47;2.28;;;;;;;29.25;30.89;95868.06;4901105;29;20250;-83
2022/08/11 13:16:04;;;;;;;2.72;1.88;;;;;;;29.24;31.58;95871.03;4901549;29;20210;-83
2022/08/11 13:18:34;;;;;;;2.22;1.90;;;;;;;29.10;30.67;95863.00;4902100;29;20210;-83
2022/08/11 13:21:01;;;;;;;3.63;2.03;;;;;;;29.16;30.99;95857.34;4900651;29;20235;-83
2022/08/11 13:23:28;;;;;;;3.33;2.00;;;;;;;29.45;31.18;95861.69;4901636;29;20203;-83
2022/08/11 13:25:56;;;;;;;3.38;2.58;;;;;;;29.68;30.87;95854.69;4901158;29;20258;-83
2022/08/11 13:28:23;;;;;;;4.28;2.13;;;;;;;29.44;30.49;95860.91;4901409;29;20672;-83
2022/08/11 13:33:41;;;;;;;4.35;2.20;;;;;;;29.63;30.57;95855.59;4901109;29;20750;-83
2022/08/11 13:36:08;;;;;;;3.80;2.10;;;;;;;29.26;30.43;95853.72;4901244;29;20262;-83
2022/08/11 13:38:35;;;;;;;3.35;2.10;;;;;;;28.99;30.75;95856.25;4901160;29;20257;-83
2022/08/11 13:41:36;;;;;;;3.38;2.17;;;;;;;28.87;30.75;95851.38;4899416;29;20260;-83
2022/08/11 13:43:50;;;;;;;2.20;2.00;;;;;;;28.84;30.98;95855.41;4899753;29;20207;-83
2022/08/11 13:46:19;;;;;;;2.35;2.10;;;;;;;28.82;31.38;95846.16;4899373;29;20214;-83
2022/08/11 13:48:48;;;;;;;2.20;1.95;;;;;;;28.96;30.71;95843.56;4899411;29;20282;-83
2022/08/11 13:51:32;;;;;;;5.05;2.03;;;;;;;29.04;31.13;95848.25;4899330;29;20234;-83
2022/08/11 13:54:00;;;;;;;2.40;2.20;;;;;;;29.26;30.95;95847.63;4901655;29;20317;-83
2022/08/11 13:56:27;;;;;;;3.95;2.50;;;;;;;29.46;29.84;95845.50;4902361;29;20214;-83
2022/08/11 13:58:55;;;;;;;12.88;11.68;;;;;;;29.52;30.46;95846.22;4901854;29;20248;-83
2022/08/11 14:01:24;;;;;;;6.65;6.00;;;;;;;29.55;29.83;95846.41;4900240;29;20615;-83
2022/08/11 14:03:53;;;;;;;3.90;3.33;;;;;;;29.64;29.90;95841.22;4901678;29;20229;-83
2022/08/11 14:06:21;;;;;;;3.40;2.65;;;;;;;29.58;29.88;95841.63;4901751;29;20267;-83
2022/08/11 14:08:52;;;;;;;2.60;2.13;;;;;;;29.45;29.68;95835.16;4901747;29;20767;-83
2022/08/11 14:14:08;;;;;;;3.40;3.10;;;;;;;29.54;30.37;95833.44;4902285;29;20365;-83
2022/08/11 14:16:39;;;;;;;4.28;2.60;;;;;;;29.70;30.08;95832.09;4902427;29;20207;-83
2022/08/11 14:19:12;;;;;;;2.88;2.20;;;;;;;29.70;29.93;95829.44;4901418;29;20214;-83
2022/08/11 14:24:31;;;;;;;4.85;2.20;;;;;;;29.76;29.17;95820.31;4901220;29;20206;-83
2022/08/11 14:26:58;;;;;;;2.20;2.05;;;;;;;29.58;29.84;95823.81;4901231;29;20210;-83
2022/08/11 14:29:27;;;;;;;2.00;1.90;;;;;;;29.31;29.49;95834.31;4900581;29;20207;-83
2022/08/11 14:31:56;;;;;;;1.95;1.77;;;;;;;29.25;29.89;95833.59;4882161;29;20239;-84
2022/08/11 14:34:28;;;;;;;2.95;2.10;;;;;;;29.34;29.90;95826.56;4882507;29;20246;-82
2022/08/11 14:36:56;;;;;;;2.00;1.83;;;;;;;29.43;30.01;95827.53;4881639;29;20580;-82
2022/08/11 14:39:25;;;;;;;4.18;2.00;;;;;;;29.39;29.59;95821.22;4892228;29;20960;-82
2022/08/11 14:47:29;;;;;;;2.47;2.10;;;;;;;29.26;30.32;95826.41;4899639;29;20206;-82
2022/08/11 14:49:59;;;;;;;2.03;1.90;;;;;;;29.33;29.31;95832.16;4899647;29;20285;-82
2022/08/11 14:52:26;;;;;;;4.32;2.08;;;;;;;29.00;28.63;95831.31;4897979;29;20238;-82
2022/08/11 14:57:40;;;;;;;2.30;1.80;;;;;;;28.71;29.68;95820.81;4900029;29;20710;-81
2022/08/11 15:00:11;;;;;;;5.00;4.10;;;;;;;28.31;29.69;95822.09;4898753;29;20739;-81
2022/08/11 15:05:26;;;;;;;7.13;5.32;;;;;;;28.30;30.87;95817.88;4885445;29;20214;-83
2022/08/11 15:07:54;;;;;;;2.05;1.95;;;;;;;28.25;30.33;95816.09;4890106;29;20403;-83
2022/08/11 15:10:21;;;;;;;1.95;1.85;;;;;;;28.23;30.47;95809.50;4896699;29;20207;-83
2022/08/11 15:12:49;;;;;;;2.33;2.13;;;;;;;28.23;31.17;95817.44;4894632;29;20707;-83
2022/08/11 15:18:05;;;;;;;1.90;1.80;;;;;;;28.16;30.68;95818.53;4888839;29;20283;-83
2022/08/11 15:26:05;;;;;;;3.10;2.00;;;;;;;28.22;30.20;95818.50;4881757;29;20274;-83
2022/08/11 15:48:19;;;;;;;2.10;1.90;;;;;;;28.80;29.47;95800.59;4883774;29;20710;-83
2022/08/11 15:50:50;;;;;;;5.53;2.08;;;;;;;28.75;29.02;95795.31;4888341;29;20305;-83
2022/08/11 15:53:27;;;;;;;2.17;2.00;;;;;;;28.66;28.84;95791.75;4898201;29;20226;-83
2022/08/11 15:55:55;;;;;;;1.80;1.70;;;;;;;28.52;28.43;95794.28;4885374;29;20207;-83
2022/08/11 16:04:13;;;;;;;2.00;1.80;;;;;;;28.23;28.91;95783.81;4886891;29;20294;-83
2022/08/11 16:06:45;;;;;;;5.05;1.80;;;;;;;28.09;28.65;95783.69;4894540;29;20214;-83
2022/08/11 16:09:16;;;;;;;2.45;1.90;;;;;;;28.11;28.40;95783.38;4895533;29;20205;-83
2022/08/11 16:11:44;;;;;;;1.98;1.88;;;;;;;28.10;28.93;95787.88;4892298;29;20855;-83
2022/08/11 16:16:58;;;;;;;2.42;1.70;;;;;;;27.76;28.91;95780.03;4899569;29;20210;-83
2022/08/11 16:19:27;;;;;;;4.40;1.90;;;;;;;27.47;28.69;95779.25;4899225;29;20211;-83
2022/08/11 16:21:56;;;;;;;3.83;1.90;;;;;;;27.42;29.08;95774.78;4897548;29;20325;-83
2022/08/11 16:24:24;;;;;;;2.88;1.88;;;;;;;27.26;29.27;95783.13;4898775;29;20207;-83
2022/08/11 16:26:54;;;;;;;2.55;1.77;;;;;;;27.07;28.93;95781.16;4899153;29;20206;-83
2022/08/11 16:29:23;;;;;;;1.77;1.67;;;;;;;27.06;29.32;95779.56;4899236;29;20297;-83
2022/08/11 16:40:08;;;;;;;1.98;1.77;;;;;;;26.96;29.65;95779.63;4879615;29;20210;-83
2022/08/11 16:48:06;;;;;;;2.72;2.20;;;;;;;27.04;30.65;95771.13;4880811;29;20769;-83
2022/08/11 16:50:33;;;;;;;2.83;1.92;;;;;;;27.07;30.75;95770.59;4879924;29;20254;-83
2022/08/11 16:52:59;;;;;;;2.45;2.00;;;;;;;27.06;31.49;95771.66;4880058;29;20232;-83
2022/08/11 16:55:31;;;;;;;3.53;1.90;;;;;;;27.00;31.26;95774.59;4880836;29;20287;-83
2022/08/11 17:00:44;;;;;;;1.92;1.67;;;;;;;26.72;31.11;95766.31;4879900;29;20226;-83
2022/08/11 17:14:28;;;;;;;2.90;2.60;;;;;;;26.48;31.77;95778.59;4898777;29;20317;-83
2022/08/11 17:16:56;;;;;;;3.20;3.00;;;;;;;26.50;31.82;95773.81;4898584;29;20211;-83